Terminal Aerodrome Forecast
Issued by NWS

Home | Current Version | Previous Version | Text Only | Print | Product List | Glossary On
Versions: 1 2 3 4 5 6 7 8 9 10 11 12 13 14 15 16 17 18 19 20 21 22 23 24 25 26 27 28 29 30 31 32 33 34
000
FTUS46 KLOX 232025 AAC
TAFLAX
TAF AMD
KLAX 232025Z 2320/2424 27016KT 3SM BR BKN006
     FM232100 27012KT P6SM SCT006
     FM240200 27008KT P6SM OVC008
     FM240600 VRB03KT P6SM OVC007
     FM241700 25006KT P6SM SCT010
     FM242000 25012KT P6SM SKC=

USA.gov is the U.S. government's official web portal to all federal, state and local government web resources and services.